sensor_id;sensor_type;location;lat;lon;timestamp;temperature;humidity
43810;DHT22;29440;48.208;11.162;2023-11-21T00:00:53;7.20;99.90
43810;DHT22;29440;48.208;11.162;2023-11-21T00:03:19;7.20;99.90
43810;DHT22;29440;48.208;11.162;2023-11-21T00:05:44;7.20;99.90
43810;DHT22;29440;48.208;11.162;2023-11-21T00:08:10;7.20;99.90
43810;DHT22;29440;48.208;11.162;2023-11-21T00:10:36;7.20;99.90
43810;DHT22;29440;48.208;11.162;2023-11-21T00:13:04;7.20;99.90
43810;DHT22;29440;48.208;11.162;2023-11-21T00:15:29;7.20;99.90
43810;DHT22;29440;48.208;11.162;2023-11-21T00:17:55;7.20;99.90
43810;DHT22;29440;48.208;11.162;2023-11-21T00:20:20;7.30;99.90
43810;DHT22;29440;48.208;11.162;2023-11-21T00:22:46;7.30;99.90
43810;DHT22;29440;48.208;11.162;2023-11-21T00:25:13;7.30;99.90
43810;DHT22;29440;48.208;11.162;2023-11-21T00:27:41;7.40;99.90
43810;DHT22;29440;48.208;11.162;2023-11-21T00:30:07;7.40;99.90
43810;DHT22;29440;48.208;11.162;2023-11-21T00:32:35;7.40;99.90
43810;DHT22;29440;48.208;11.162;2023-11-21T00:35:01;7.40;99.90
43810;DHT22;29440;48.208;11.162;2023-11-21T00:37:26;7.50;99.90
43810;DHT22;29440;48.208;11.162;2023-11-21T00:39:52;7.50;99.90
43810;DHT22;29440;48.208;11.162;2023-11-21T00:42:17;7.50;99.90
43810;DHT22;29440;48.208;11.162;2023-11-21T00:44:43;7.50;99.90
43810;DHT22;29440;48.208;11.162;2023-11-21T00:47:08;7.50;99.90
43810;DHT22;29440;48.208;11.162;2023-11-21T00:49:34;7.60;99.90
43810;DHT22;29440;48.208;11.162;2023-11-21T00:51:59;7.50;99.90
43810;DHT22;29440;48.208;11.162;2023-11-21T00:54:26;7.50;99.90
43810;DHT22;29440;48.208;11.162;2023-11-21T00:56:52;7.50;99.90
43810;DHT22;29440;48.208;11.162;2023-11-21T00:59:17;7.60;99.90
43810;DHT22;29440;48.208;11.162;2023-11-21T01:01:43;7.50;99.90
43810;DHT22;29440;48.208;11.162;2023-11-21T01:04:09;7.60;99.90
43810;DHT22;29440;48.208;11.162;2023-11-21T01:06:35;7.60;99.90
43810;DHT22;29440;48.208;11.162;2023-11-21T01:09:01;7.50;99.90
43810;DHT22;29440;48.208;11.162;2023-11-21T01:11:27;7.50;99.90
43810;DHT22;29440;48.208;11.162;2023-11-21T01:13:53;7.60;99.90
43810;DHT22;29440;48.208;11.162;2023-11-21T01:16:18;7.50;99.90
43810;DHT22;29440;48.208;11.162;2023-11-21T01:18:44;7.50;99.90
43810;DHT22;29440;48.208;11.162;2023-11-21T01:21:09;7.50;99.90
43810;DHT22;29440;48.208;11.162;2023-11-21T01:23:35;7.50;99.90
43810;DHT22;29440;48.208;11.162;2023-11-21T01:26:00;7.50;99.90
43810;DHT22;29440;48.208;11.162;2023-11-21T01:28:26;7.50;99.90
43810;DHT22;29440;48.208;11.162;2023-11-21T01:30:52;7.50;99.90
43810;DHT22;29440;48.208;11.162;2023-11-21T01:33:18;7.50;99.90
43810;DHT22;29440;48.208;11.162;2023-11-21T01:35:44;7.50;99.90
43810;DHT22;29440;48.208;11.162;2023-11-21T01:38:11;7.50;99.90
43810;DHT22;29440;48.208;11.162;2023-11-21T01:40:37;7.50;99.90
43810;DHT22;29440;48.208;11.162;2023-11-21T01:43:02;7.50;99.90
43810;DHT22;29440;48.208;11.162;2023-11-21T01:45:29;7.50;99.90
43810;DHT22;29440;48.208;11.162;2023-11-21T01:47:56;7.50;99.90
43810;DHT22;29440;48.208;11.162;2023-11-21T01:50:22;7.50;99.90
43810;DHT22;29440;48.208;11.162;2023-11-21T01:52:48;7.50;99.90
43810;DHT22;29440;48.208;11.162;2023-11-21T01:55:16;7.40;99.90
43810;DHT22;29440;48.208;11.162;2023-11-21T01:57:46;7.40;99.90
43810;DHT22;29440;48.208;11.162;2023-11-21T02:00:12;7.40;99.90
43810;DHT22;29440;48.208;11.162;2023-11-21T02:02:48;7.40;99.90
43810;DHT22;29440;48.208;11.162;2023-11-21T02:05:15;7.30;99.90
43810;DHT22;29440;48.208;11.162;2023-11-21T02:07:42;7.30;99.90
43810;DHT22;29440;48.208;11.162;2023-11-21T02:10:08;7.30;99.90
43810;DHT22;29440;48.208;11.162;2023-11-21T02:12:35;7.30;99.90
43810;DHT22;29440;48.208;11.162;2023-11-21T02:15:05;7.30;99.90
43810;DHT22;29440;48.208;11.162;2023-11-21T02:17:35;7.20;99.90
43810;DHT22;29440;48.208;11.162;2023-11-21T02:20:01;7.20;99.90
43810;DHT22;29440;48.208;11.162;2023-11-21T02:22:30;7.20;99.90
43810;DHT22;29440;48.208;11.162;2023-11-21T02:24:58;7.20;99.90
43810;DHT22;29440;48.208;11.162;2023-11-21T02:27:24;7.20;99.90
43810;DHT22;29440;48.208;11.162;2023-11-21T02:29:50;7.20;99.90
43810;DHT22;29440;48.208;11.162;2023-11-21T02:32:15;7.20;99.90
43810;DHT22;29440;48.208;11.162;2023-11-21T02:34:44;7.20;99.90
43810;DHT22;29440;48.208;11.162;2023-11-21T02:37:10;7.20;99.90
43810;DHT22;29440;48.208;11.162;2023-11-21T02:39:35;7.20;99.90
43810;DHT22;29440;48.208;11.162;2023-11-21T02:42:01;7.20;99.90
43810;DHT22;29440;48.208;11.162;2023-11-21T02:44:26;7.10;99.90
43810;DHT22;29440;48.208;11.162;2023-11-21T02:46:52;7.10;99.90
43810;DHT22;29440;48.208;11.162;2023-11-21T02:49:17;7.10;99.90
43810;DHT22;29440;48.208;11.162;2023-11-21T02:51:43;7.10;99.90
43810;DHT22;29440;48.208;11.162;2023-11-21T02:54:09;7.10;99.90
43810;DHT22;29440;48.208;11.162;2023-11-21T02:56:34;7.10;99.90
43810;DHT22;29440;48.208;11.162;2023-11-21T02:59:00;7.10;99.90
43810;DHT22;29440;48.208;11.162;2023-11-21T03:01:26;7.10;99.90
43810;DHT22;29440;48.208;11.162;2023-11-21T03:03:53;7.10;99.90
43810;DHT22;29440;48.208;11.162;2023-11-21T03:06:22;7.10;99.90
43810;DHT22;29440;48.208;11.162;2023-11-21T03:08:48;7.10;99.90
43810;DHT22;29440;48.208;11.162;2023-11-21T03:11:14;7.10;99.90
43810;DHT22;29440;48.208;11.162;2023-11-21T03:13:40;7.10;99.90
43810;DHT22;29440;48.208;11.162;2023-11-21T03:16:10;7.10;99.90
43810;DHT22;29440;48.208;11.162;2023-11-21T03:18:37;7.20;99.90
43810;DHT22;29440;48.208;11.162;2023-11-21T03:21:06;7.20;99.90
43810;DHT22;29440;48.208;11.162;2023-11-21T03:23:34;7.10;99.90
43810;DHT22;29440;48.208;11.162;2023-11-21T03:26:01;7.20;99.90
43810;DHT22;29440;48.208;11.162;2023-11-21T03:28:26;7.20;99.90
43810;DHT22;29440;48.208;11.162;2023-11-21T03:30:53;7.10;99.90
43810;DHT22;29440;48.208;11.162;2023-11-21T03:33:19;7.10;99.90
43810;DHT22;29440;48.208;11.162;2023-11-21T03:35:44;7.10;99.90
43810;DHT22;29440;48.208;11.162;2023-11-21T03:38:10;7.10;99.90
43810;DHT22;29440;48.208;11.162;2023-11-21T03:40:36;7.10;99.90
43810;DHT22;29440;48.208;11.162;2023-11-21T03:43:01;7.10;99.90
43810;DHT22;29440;48.208;11.162;2023-11-21T03:45:27;7.10;99.90
43810;DHT22;29440;48.208;11.162;2023-11-21T03:47:53;7.10;99.90
43810;DHT22;29440;48.208;11.162;2023-11-21T03:50:18;7.10;99.90
43810;DHT22;29440;48.208;11.162;2023-11-21T03:52:44;7.10;99.90
43810;DHT22;29440;48.208;11.162;2023-11-21T03:55:09;7.10;99.90
43810;DHT22;29440;48.208;11.162;2023-11-21T03:57:36;7.10;99.90
43810;DHT22;29440;48.208;11.162;2023-11-21T04:00:02;7.10;99.90
43810;DHT22;29440;48.208;11.162;2023-11-21T04:02:29;7.10;99.90
43810;DHT22;29440;48.208;11.162;2023-11-21T04:04:56;7.10;99.90
43810;DHT22;29440;48.208;11.162;2023-11-21T04:07:22;7.10;99.90
43810;DHT22;29440;48.208;11.162;2023-11-21T04:09:47;7.10;99.90
43810;DHT22;29440;48.208;11.162;2023-11-21T04:12:13;7.10;99.90
43810;DHT22;29440;48.208;11.162;2023-11-21T04:14:39;7.10;99.90
43810;DHT22;29440;48.208;11.162;2023-11-21T04:17:04;7.10;99.90
43810;DHT22;29440;48.208;11.162;2023-11-21T04:19:30;7.10;99.90
43810;DHT22;29440;48.208;11.162;2023-11-21T04:21:55;7.10;99.90
43810;DHT22;29440;48.208;11.162;2023-11-21T04:24:21;7.10;99.90
43810;DHT22;29440;48.208;11.162;2023-11-21T04:26:46;7.10;99.90
43810;DHT22;29440;48.208;11.162;2023-11-21T04:29:12;7.10;99.90
43810;DHT22;29440;48.208;11.162;2023-11-21T04:31:37;7.10;99.90
43810;DHT22;29440;48.208;11.162;2023-11-21T04:34:03;7.10;99.90
43810;DHT22;29440;48.208;11.162;2023-11-21T04:36:29;7.10;99.90
43810;DHT22;29440;48.208;11.162;2023-11-21T04:38:56;7.10;99.90
43810;DHT22;29440;48.208;11.162;2023-11-21T04:41:22;7.10;99.90
43810;DHT22;29440;48.208;11.162;2023-11-21T04:43:47;7.00;99.90
43810;DHT22;29440;48.208;11.162;2023-11-21T04:46:14;7.00;99.90
43810;DHT22;29440;48.208;11.162;2023-11-21T04:48:39;7.00;99.90
43810;DHT22;29440;48.208;11.162;2023-11-21T04:51:05;7.10;99.90
43810;DHT22;29440;48.208;11.162;2023-11-21T04:53:32;7.00;99.90
43810;DHT22;29440;48.208;11.162;2023-11-21T04:55:57;6.90;99.90
43810;DHT22;29440;48.208;11.162;2023-11-21T04:58:23;6.90;99.90
43810;DHT22;29440;48.208;11.162;2023-11-21T05:00:48;6.90;99.90
43810;DHT22;29440;48.208;11.162;2023-11-21T05:03:15;6.80;99.90
43810;DHT22;29440;48.208;11.162;2023-11-21T05:05:40;6.80;99.90
43810;DHT22;29440;48.208;11.162;2023-11-21T05:08:06;6.80;99.90
43810;DHT22;29440;48.208;11.162;2023-11-21T05:10:31;6.80;99.90
43810;DHT22;29440;48.208;11.162;2023-11-21T05:12:57;6.80;99.90
43810;DHT22;29440;48.208;11.162;2023-11-21T05:15:23;6.80;99.90
43810;DHT22;29440;48.208;11.162;2023-11-21T05:17:49;6.80;99.90
43810;DHT22;29440;48.208;11.162;2023-11-21T05:20:19;6.80;99.90
43810;DHT22;29440;48.208;11.162;2023-11-21T05:22:49;6.70;99.90
43810;DHT22;29440;48.208;11.162;2023-11-21T05:25:15;6.70;99.90
43810;DHT22;29440;48.208;11.162;2023-11-21T05:27:42;6.70;99.90
43810;DHT22;29440;48.208;11.162;2023-11-21T05:30:08;6.70;99.90
43810;DHT22;29440;48.208;11.162;2023-11-21T05:32:38;6.70;99.90
43810;DHT22;29440;48.208;11.162;2023-11-21T05:35:04;6.70;99.90
43810;DHT22;29440;48.208;11.162;2023-11-21T05:37:35;6.70;99.90
43810;DHT22;29440;48.208;11.162;2023-11-21T05:40:01;6.60;99.90
43810;DHT22;29440;48.208;11.162;2023-11-21T05:42:34;6.60;99.90
43810;DHT22;29440;48.208;11.162;2023-11-21T05:45:00;6.60;99.90
43810;DHT22;29440;48.208;11.162;2023-11-21T05:47:39;6.60;99.90
43810;DHT22;29440;48.208;11.162;2023-11-21T05:50:06;6.60;99.90
43810;DHT22;29440;48.208;11.162;2023-11-21T05:52:36;6.60;99.90
43810;DHT22;29440;48.208;11.162;2023-11-21T05:55:02;6.60;99.90
43810;DHT22;29440;48.208;11.162;2023-11-21T05:57:28;6.50;99.90
43810;DHT22;29440;48.208;11.162;2023-11-21T05:59:53;6.50;99.90
43810;DHT22;29440;48.208;11.162;2023-11-21T06:02:19;6.60;99.90
43810;DHT22;29440;48.208;11.162;2023-11-21T06:04:44;6.50;99.90
43810;DHT22;29440;48.208;11.162;2023-11-21T06:07:11;6.50;99.90
43810;DHT22;29440;48.208;11.162;2023-11-21T06:09:37;6.50;99.90
43810;DHT22;29440;48.208;11.162;2023-11-21T06:12:03;6.50;99.90
43810;DHT22;29440;48.208;11.162;2023-11-21T06:14:29;6.50;99.90
43810;DHT22;29440;48.208;11.162;2023-11-21T06:16:55;6.40;99.90
43810;DHT22;29440;48.208;11.162;2023-11-21T06:19:21;6.40;99.90
43810;DHT22;29440;48.208;11.162;2023-11-21T06:21:47;6.40;99.90
43810;DHT22;29440;48.208;11.162;2023-11-21T06:24:13;6.40;99.90
43810;DHT22;29440;48.208;11.162;2023-11-21T06:26:40;6.40;99.90
43810;DHT22;29440;48.208;11.162;2023-11-21T06:29:06;6.40;99.90
43810;DHT22;29440;48.208;11.162;2023-11-21T06:31:32;6.40;99.90
43810;DHT22;29440;48.208;11.162;2023-11-21T06:33:58;6.40;99.90
43810;DHT22;29440;48.208;11.162;2023-11-21T06:36:25;6.40;99.90
43810;DHT22;29440;48.208;11.162;2023-11-21T06:38:52;6.40;99.90
43810;DHT22;29440;48.208;11.162;2023-11-21T06:41:17;6.40;99.90
43810;DHT22;29440;48.208;11.162;2023-11-21T06:43:43;6.40;99.90
43810;DHT22;29440;48.208;11.162;2023-11-21T06:46:12;6.40;99.90
43810;DHT22;29440;48.208;11.162;2023-11-21T06:48:42;6.40;99.90
43810;DHT22;29440;48.208;11.162;2023-11-21T06:51:08;6.40;99.90
43810;DHT22;29440;48.208;11.162;2023-11-21T06:53:33;6.40;99.90
43810;DHT22;29440;48.208;11.162;2023-11-21T06:55:59;6.30;99.90
43810;DHT22;29440;48.208;11.162;2023-11-21T06:58:25;6.30;99.90
43810;DHT22;29440;48.208;11.162;2023-11-21T07:00:50;6.30;99.90
43810;DHT22;29440;48.208;11.162;2023-11-21T07:03:17;6.30;99.90
43810;DHT22;29440;48.208;11.162;2023-11-21T07:05:44;6.30;99.90
43810;DHT22;29440;48.208;11.162;2023-11-21T07:08:10;6.30;99.90
43810;DHT22;29440;48.208;11.162;2023-11-21T07:10:36;6.30;99.90
43810;DHT22;29440;48.208;11.162;2023-11-21T07:13:02;6.30;99.90
43810;DHT22;29440;48.208;11.162;2023-11-21T07:15:28;6.30;99.90
43810;DHT22;29440;48.208;11.162;2023-11-21T07:17:53;6.30;99.90
43810;DHT22;29440;48.208;11.162;2023-11-21T07:20:19;6.30;99.90
43810;DHT22;29440;48.208;11.162;2023-11-21T07:22:45;6.30;99.90
43810;DHT22;29440;48.208;11.162;2023-11-21T07:25:11;6.40;99.90
43810;DHT22;29440;48.208;11.162;2023-11-21T07:27:37;6.40;99.90
43810;DHT22;29440;48.208;11.162;2023-11-21T07:30:03;6.40;99.90
43810;DHT22;29440;48.208;11.162;2023-11-21T07:32:31;6.50;99.90
43810;DHT22;29440;48.208;11.162;2023-11-21T07:34:56;6.50;99.90
43810;DHT22;29440;48.208;11.162;2023-11-21T07:37:23;6.50;99.90
43810;DHT22;29440;48.208;11.162;2023-11-21T07:39:49;6.60;99.90
43810;DHT22;29440;48.208;11.162;2023-11-21T07:42:14;6.60;99.90
43810;DHT22;29440;48.208;11.162;2023-11-21T07:44:40;6.70;99.90
43810;DHT22;29440;48.208;11.162;2023-11-21T07:47:05;6.80;99.90
43810;DHT22;29440;48.208;11.162;2023-11-21T07:49:31;6.80;99.90
43810;DHT22;29440;48.208;11.162;2023-11-21T07:51:56;6.90;99.90
43810;DHT22;29440;48.208;11.162;2023-11-21T07:54:22;7.10;99.90
43810;DHT22;29440;48.208;11.162;2023-11-21T07:56:47;7.10;99.90
43810;DHT22;29440;48.208;11.162;2023-11-21T07:59:13;7.20;99.90
43810;DHT22;29440;48.208;11.162;2023-11-21T08:01:39;7.30;99.90
43810;DHT22;29440;48.208;11.162;2023-11-21T08:04:06;7.30;99.90
43810;DHT22;29440;48.208;11.162;2023-11-21T08:06:32;7.40;99.90
43810;DHT22;29440;48.208;11.162;2023-11-21T08:08:58;7.50;99.90
43810;DHT22;29440;48.208;11.162;2023-11-21T08:11:24;7.60;99.90
43810;DHT22;29440;48.208;11.162;2023-11-21T08:13:49;7.70;99.90
43810;DHT22;29440;48.208;11.162;2023-11-21T08:16:15;7.80;99.90
43810;DHT22;29440;48.208;11.162;2023-11-21T08:18:42;7.80;99.90
43810;DHT22;29440;48.208;11.162;2023-11-21T08:21:08;7.90;99.90
43810;DHT22;29440;48.208;11.162;2023-11-21T08:23:34;8.00;99.90
43810;DHT22;29440;48.208;11.162;2023-11-21T08:25:59;8.00;99.90
43810;DHT22;29440;48.208;11.162;2023-11-21T08:28:25;8.10;99.90
43810;DHT22;29440;48.208;11.162;2023-11-21T08:30:53;8.10;99.90
43810;DHT22;29440;48.208;11.162;2023-11-21T08:33:21;8.20;99.90
43810;DHT22;29440;48.208;11.162;2023-11-21T08:35:48;8.30;99.90
43810;DHT22;29440;48.208;11.162;2023-11-21T08:38:13;8.30;99.90
43810;DHT22;29440;48.208;11.162;2023-11-21T08:40:39;8.30;99.90
43810;DHT22;29440;48.208;11.162;2023-11-21T08:43:04;8.30;99.90
43810;DHT22;29440;48.208;11.162;2023-11-21T08:45:31;8.40;99.90
43810;DHT22;29440;48.208;11.162;2023-11-21T08:48:04;8.40;99.90
43810;DHT22;29440;48.208;11.162;2023-11-21T08:50:31;8.40;99.90
43810;DHT22;29440;48.208;11.162;2023-11-21T08:52:56;8.40;99.90
43810;DHT22;29440;48.208;11.162;2023-11-21T08:55:22;8.50;99.90
43810;DHT22;29440;48.208;11.162;2023-11-21T08:57:47;8.40;99.90
43810;DHT22;29440;48.208;11.162;2023-11-21T09:00:13;8.50;99.90
43810;DHT22;29440;48.208;11.162;2023-11-21T09:02:41;8.50;99.90
43810;DHT22;29440;48.208;11.162;2023-11-21T09:05:08;8.60;99.90
43810;DHT22;29440;48.208;11.162;2023-11-21T09:07:34;8.60;99.90
43810;DHT22;29440;48.208;11.162;2023-11-21T09:10:01;8.60;99.90
43810;DHT22;29440;48.208;11.162;2023-11-21T09:12:26;8.60;99.90
43810;DHT22;29440;48.208;11.162;2023-11-21T09:14:52;8.60;99.90
43810;DHT22;29440;48.208;11.162;2023-11-21T09:17:17;8.60;99.90
43810;DHT22;29440;48.208;11.162;2023-11-21T09:19:43;8.60;99.90
43810;DHT22;29440;48.208;11.162;2023-11-21T09:22:10;8.60;99.90
43810;DHT22;29440;48.208;11.162;2023-11-21T09:24:36;8.60;99.90
43810;DHT22;29440;48.208;11.162;2023-11-21T09:27:03;8.60;99.90
43810;DHT22;29440;48.208;11.162;2023-11-21T09:29:29;8.60;99.90
43810;DHT22;29440;48.208;11.162;2023-11-21T09:31:55;8.60;99.90
43810;DHT22;29440;48.208;11.162;2023-11-21T09:34:22;8.60;99.90
43810;DHT22;29440;48.208;11.162;2023-11-21T09:36:48;8.70;99.90
43810;DHT22;29440;48.208;11.162;2023-11-21T09:39:14;8.80;99.90
43810;DHT22;29440;48.208;11.162;2023-11-21T09:41:43;8.80;99.90
43810;DHT22;29440;48.208;11.162;2023-11-21T09:44:13;8.90;99.90
43810;DHT22;29440;48.208;11.162;2023-11-21T09:46:42;8.90;99.90
43810;DHT22;29440;48.208;11.162;2023-11-21T09:49:11;8.90;99.90
43810;DHT22;29440;48.208;11.162;2023-11-21T09:51:43;9.00;99.90
43810;DHT22;29440;48.208;11.162;2023-11-21T09:54:10;8.90;99.90
43810;DHT22;29440;48.208;11.162;2023-11-21T09:56:38;8.90;99.90
43810;DHT22;29440;48.208;11.162;2023-11-21T09:59:04;8.90;99.90
43810;DHT22;29440;48.208;11.162;2023-11-21T10:01:36;8.90;99.90
43810;DHT22;29440;48.208;11.162;2023-11-21T10:04:03;8.90;99.90
43810;DHT22;29440;48.208;11.162;2023-11-21T10:06:28;8.90;99.90
43810;DHT22;29440;48.208;11.162;2023-11-21T10:08:56;8.90;99.90
43810;DHT22;29440;48.208;11.162;2023-11-21T10:11:27;8.90;99.90
43810;DHT22;29440;48.208;11.162;2023-11-21T10:13:54;8.90;99.90
43810;DHT22;29440;48.208;11.162;2023-11-21T10:16:20;8.90;99.90
43810;DHT22;29440;48.208;11.162;2023-11-21T10:18:49;9.00;99.90
43810;DHT22;29440;48.208;11.162;2023-11-21T10:21:18;9.00;99.90
43810;DHT22;29440;48.208;11.162;2023-11-21T10:23:44;9.00;99.90
43810;DHT22;29440;48.208;11.162;2023-11-21T10:26:12;9.10;99.90
43810;DHT22;29440;48.208;11.162;2023-11-21T10:28:57;9.10;99.90
43810;DHT22;29440;48.208;11.162;2023-11-21T10:31:24;9.20;99.90
43810;DHT22;29440;48.208;11.162;2023-11-21T10:33:50;9.40;99.90
43810;DHT22;29440;48.208;11.162;2023-11-21T10:36:28;9.60;99.90
43810;DHT22;29440;48.208;11.162;2023-11-21T10:38:54;9.90;99.90
43810;DHT22;29440;48.208;11.162;2023-11-21T10:41:23;10.20;99.90
43810;DHT22;29440;48.208;11.162;2023-11-21T10:43:53;10.40;99.90
43810;DHT22;29440;48.208;11.162;2023-11-21T10:46:18;10.60;99.90
43810;DHT22;29440;48.208;11.162;2023-11-21T10:48:45;10.80;99.90
43810;DHT22;29440;48.208;11.162;2023-11-21T10:51:11;10.90;99.90
43810;DHT22;29440;48.208;11.162;2023-11-21T10:53:40;11.00;99.90
43810;DHT22;29440;48.208;11.162;2023-11-21T10:56:09;11.00;99.90
43810;DHT22;29440;48.208;11.162;2023-11-21T10:58:43;11.00;99.90
43810;DHT22;29440;48.208;11.162;2023-11-21T11:01:09;11.00;99.90
43810;DHT22;29440;48.208;11.162;2023-11-21T11:03:40;11.00;99.90
43810;DHT22;29440;48.208;11.162;2023-11-21T11:06:07;10.90;99.90
43810;DHT22;29440;48.208;11.162;2023-11-21T11:08:40;10.90;99.90
43810;DHT22;29440;48.208;11.162;2023-11-21T11:11:07;10.90;99.90
43810;DHT22;29440;48.208;11.162;2023-11-21T11:13:33;10.90;99.90
43810;DHT22;29440;48.208;11.162;2023-11-21T11:15:59;10.80;99.90
43810;DHT22;29440;48.208;11.162;2023-11-21T11:18:27;10.70;99.90
43810;DHT22;29440;48.208;11.162;2023-11-21T11:20:54;10.70;99.90
43810;DHT22;29440;48.208;11.162;2023-11-21T11:23:43;10.60;99.90
43810;DHT22;29440;48.208;11.162;2023-11-21T11:27:14;10.60;99.90
43810;DHT22;29440;48.208;11.162;2023-11-21T11:29:52;10.70;99.90
43810;DHT22;29440;48.208;11.162;2023-11-21T11:32:35;10.80;99.90
43810;DHT22;29440;48.208;11.162;2023-11-21T11:35:19;10.90;99.90
43810;DHT22;29440;48.208;11.162;2023-11-21T11:37:48;10.90;99.90
43810;DHT22;29440;48.208;11.162;2023-11-21T11:40:14;11.10;99.90
43810;DHT22;29440;48.208;11.162;2023-11-21T11:42:58;11.00;99.90
43810;DHT22;29440;48.208;11.162;2023-11-21T11:45:33;11.10;99.90
43810;DHT22;29440;48.208;11.162;2023-11-21T11:48:00;11.00;99.90
43810;DHT22;29440;48.208;11.162;2023-11-21T11:50:26;11.10;99.90
43810;DHT22;29440;48.208;11.162;2023-11-21T11:52:53;11.10;99.90
43810;DHT22;29440;48.208;11.162;2023-11-21T11:55:24;11.00;99.90
43810;DHT22;29440;48.208;11.162;2023-11-21T11:57:52;11.00;99.90
43810;DHT22;29440;48.208;11.162;2023-11-21T12:00:21;11.00;99.90
43810;DHT22;29440;48.208;11.162;2023-11-21T12:02:58;11.00;99.90
43810;DHT22;29440;48.208;11.162;2023-11-21T12:05:25;11.10;99.90
43810;DHT22;29440;48.208;11.162;2023-11-21T12:07:57;11.00;99.90
43810;DHT22;29440;48.208;11.162;2023-11-21T12:10:30;11.10;99.90
43810;DHT22;29440;48.208;11.162;2023-11-21T12:12:57;11.20;99.90
43810;DHT22;29440;48.208;11.162;2023-11-21T12:15:23;11.30;99.90
43810;DHT22;29440;48.208;11.162;2023-11-21T12:17:49;11.30;99.90
43810;DHT22;29440;48.208;11.162;2023-11-21T12:20:19;11.40;99.90
43810;DHT22;29440;48.208;11.162;2023-11-21T12:22:46;11.20;99.90
43810;DHT22;29440;48.208;11.162;2023-11-21T12:25:19;11.20;99.90
43810;DHT22;29440;48.208;11.162;2023-11-21T12:27:46;11.20;99.90
43810;DHT22;29440;48.208;11.162;2023-11-21T12:30:13;11.20;99.90
43810;DHT22;29440;48.208;11.162;2023-11-21T12:32:43;11.20;99.90
43810;DHT22;29440;48.208;11.162;2023-11-21T12:35:12;11.20;99.90
43810;DHT22;29440;48.208;11.162;2023-11-21T12:37:38;11.20;99.90
43810;DHT22;29440;48.208;11.162;2023-11-21T12:40:09;11.20;99.90
43810;DHT22;29440;48.208;11.162;2023-11-21T12:42:39;11.20;99.90
43810;DHT22;29440;48.208;11.162;2023-11-21T12:47:43;11.10;99.90
43810;DHT22;29440;48.208;11.162;2023-11-21T12:50:10;11.10;99.90
43810;DHT22;29440;48.208;11.162;2023-11-21T12:52:43;11.00;99.90
43810;DHT22;29440;48.208;11.162;2023-11-21T12:55:14;11.00;99.90
43810;DHT22;29440;48.208;11.162;2023-11-21T12:57:42;11.00;99.90
43810;DHT22;29440;48.208;11.162;2023-11-21T13:00:09;11.00;99.90
43810;DHT22;29440;48.208;11.162;2023-11-21T13:02:40;10.90;99.90
43810;DHT22;29440;48.208;11.162;2023-11-21T13:05:08;10.90;99.90
43810;DHT22;29440;48.208;11.162;2023-11-21T13:07:44;10.90;99.90
43810;DHT22;29440;48.208;11.162;2023-11-21T13:10:13;10.90;99.90
43810;DHT22;29440;48.208;11.162;2023-11-21T13:12:47;10.90;99.90
43810;DHT22;29440;48.208;11.162;2023-11-21T13:15:14;10.90;99.90
43810;DHT22;29440;48.208;11.162;2023-11-21T13:17:46;10.80;99.90
43810;DHT22;29440;48.208;11.162;2023-11-21T13:20:12;10.80;99.90
43810;DHT22;29440;48.208;11.162;2023-11-21T13:22:54;10.80;99.90
43810;DHT22;29440;48.208;11.162;2023-11-21T13:25:28;10.80;99.90
43810;DHT22;29440;48.208;11.162;2023-11-21T13:27:54;10.80;99.90
43810;DHT22;29440;48.208;11.162;2023-11-21T13:30:21;10.80;99.90
43810;DHT22;29440;48.208;11.162;2023-11-21T13:32:52;10.80;99.90
43810;DHT22;29440;48.208;11.162;2023-11-21T13:35:18;10.80;99.90
43810;DHT22;29440;48.208;11.162;2023-11-21T13:37:52;10.90;99.90
43810;DHT22;29440;48.208;11.162;2023-11-21T13:40:21;10.80;99.90
43810;DHT22;29440;48.208;11.162;2023-11-21T13:42:54;10.80;99.90
43810;DHT22;29440;48.208;11.162;2023-11-21T13:45:21;10.60;99.90
43810;DHT22;29440;48.208;11.162;2023-11-21T13:47:51;10.40;99.90
43810;DHT22;29440;48.208;11.162;2023-11-21T13:50:20;10.50;99.90
43810;DHT22;29440;48.208;11.162;2023-11-21T13:52:51;10.40;99.90
43810;DHT22;29440;48.208;11.162;2023-11-21T13:55:18;10.40;99.90
43810;DHT22;29440;48.208;11.162;2023-11-21T13:57:44;10.40;99.90
43810;DHT22;29440;48.208;11.162;2023-11-21T14:00:12;10.40;99.90
43810;DHT22;29440;48.208;11.162;2023-11-21T14:02:58;10.40;99.90
43810;DHT22;29440;48.208;11.162;2023-11-21T14:05:31;10.40;99.90
43810;DHT22;29440;48.208;11.162;2023-11-21T14:07:59;10.40;99.90
43810;DHT22;29440;48.208;11.162;2023-11-21T14:10:31;10.40;99.90
43810;DHT22;29440;48.208;11.162;2023-11-21T14:13:09;10.30;99.90
43810;DHT22;29440;48.208;11.162;2023-11-21T14:15:36;10.20;99.90
43810;DHT22;29440;48.208;11.162;2023-11-21T14:18:07;10.10;99.90
43810;DHT22;29440;48.208;11.162;2023-11-21T14:20:36;10.00;99.90
43810;DHT22;29440;48.208;11.162;2023-11-21T14:23:03;10.00;99.90
43810;DHT22;29440;48.208;11.162;2023-11-21T14:25:31;9.90;99.90
43810;DHT22;29440;48.208;11.162;2023-11-21T14:27:57;9.90;99.90
43810;DHT22;29440;48.208;11.162;2023-11-21T14:30:22;9.80;99.90
43810;DHT22;29440;48.208;11.162;2023-11-21T14:32:48;9.80;99.90
43810;DHT22;29440;48.208;11.162;2023-11-21T14:35:16;9.80;99.90
43810;DHT22;29440;48.208;11.162;2023-11-21T14:37:43;9.80;99.90
43810;DHT22;29440;48.208;11.162;2023-11-21T14:40:09;9.80;99.90
43810;DHT22;29440;48.208;11.162;2023-11-21T14:42:35;9.80;99.90
43810;DHT22;29440;48.208;11.162;2023-11-21T14:45:04;9.80;99.90
43810;DHT22;29440;48.208;11.162;2023-11-21T14:47:32;9.80;99.90
43810;DHT22;29440;48.208;11.162;2023-11-21T14:50:02;9.80;99.90
43810;DHT22;29440;48.208;11.162;2023-11-21T14:52:47;9.70;99.90
43810;DHT22;29440;48.208;11.162;2023-11-21T14:55:23;9.70;99.90
43810;DHT22;29440;48.208;11.162;2023-11-21T14:57:57;9.60;99.90
43810;DHT22;29440;48.208;11.162;2023-11-21T15:00:27;9.60;99.90
43810;DHT22;29440;48.208;11.162;2023-11-21T15:02:58;9.50;99.90
43810;DHT22;29440;48.208;11.162;2023-11-21T15:05:24;9.30;99.90
43810;DHT22;29440;48.208;11.162;2023-11-21T15:07:50;9.30;99.90
43810;DHT22;29440;48.208;11.162;2023-11-21T15:10:20;9.30;99.90
43810;DHT22;29440;48.208;11.162;2023-11-21T15:12:54;9.30;99.90
43810;DHT22;29440;48.208;11.162;2023-11-21T15:15:19;9.20;99.90
43810;DHT22;29440;48.208;11.162;2023-11-21T15:17:46;9.20;99.90
43810;DHT22;29440;48.208;11.162;2023-11-21T15:20:12;9.10;99.90
43810;DHT22;29440;48.208;11.162;2023-11-21T15:22:44;9.10;99.90
43810;DHT22;29440;48.208;11.162;2023-11-21T15:25:10;9.00;99.90
43810;DHT22;29440;48.208;11.162;2023-11-21T15:27:35;9.00;99.90
43810;DHT22;29440;48.208;11.162;2023-11-21T15:30:02;9.00;99.90
43810;DHT22;29440;48.208;11.162;2023-11-21T15:32:28;8.90;99.90